Time;durP1;ratioP1;P1;durP2;ratioP2;P2;SDS_P1;SDS_P2;PMS_P1;PMS_P2;Temp;Humidity;BMP_temperature;BMP_pressure;BME280_temperature;BME280_humidity;BME280_pressure;Samples;Min_cycle;Max_cycle;Signal;HPM_P1;HPM_P2
2022/08/10 00:01:05;;;;;;;;;;;;;;;;;;4890966;29;19947;-73
2022/08/10 00:03:32;;;;;;;;;;;;;;;;;;4888893;29;19932;-73
2022/08/10 00:05:59;;;;;;;;;;;;;;;;;;4890607;29;19931;-73
2022/08/10 00:08:27;;;;;;;;;;;;;;;;;;4890563;29;19938;-73
2022/08/10 00:10:54;;;;;;;;;;;;;;;;;;4890402;29;19932;-73
2022/08/10 00:13:22;;;;;;;;;;;;;;;;;;4887312;29;19976;-73
2022/08/10 00:15:49;;;;;;;;;;;;;;;;;;4889866;29;20245;-73
2022/08/10 00:18:20;;;;;;;;;;;;;;;;;;4889708;29;19986;-73
2022/08/10 00:21:02;;;;;;;;;;;;;;;;;;4890068;29;19934;-73
2022/08/10 00:23:29;;;;;;;;;;;;;;;;;;4888989;29;19932;-73
2022/08/10 00:25:56;;;;;;;;;;;;;;;;;;4889898;29;20026;-73
2022/08/10 00:28:23;;;;;;;;;;;;;;;;;;4888612;29;19938;-73
2022/08/10 00:30:51;;;;;;;;;;;;;;;;;;4888085;29;19939;-73
2022/08/10 00:33:19;;;;;;;;;;;;;;;;;;4888839;29;19938;-73
2022/08/10 00:35:46;;;;;;;;;;;;;;;;;;4889817;29;20340;-73
2022/08/10 00:38:14;;;;;;;;;;;;;;;;;;4889470;29;19935;-73
2022/08/10 00:40:41;;;;;;;;;;;;;;;;;;4889833;29;20455;-73
2022/08/10 00:43:08;;;;;;;;;;;;;;;;;;4889017;29;19938;-73
2022/08/10 00:45:35;;;;;;;;;;;;;;;;;;4889762;29;19936;-73
2022/08/10 00:48:03;;;;;;;;;;;;;;;;;;4889418;29;19936;-73
2022/08/10 00:50:30;;;;;;;;;;;;;;;;;;4889757;29;19987;-73
2022/08/10 00:52:57;;;;;;;;;;;;;;;;;;4888745;29;19938;-73
2022/08/10 00:55:25;;;;;;;;;;;;;;;;;;4890431;29;20026;-73
2022/08/10 00:57:52;;;;;;;;;;;;;;;;;;4889326;29;19931;-73
2022/08/10 01:00:21;;;;;;;;;;;;;;;;;;4889819;29;20018;-73
2022/08/10 01:02:48;;;;;;;;;;;;;;;;;;4888918;29;20385;-73
2022/08/10 01:05:16;;;;;;;;;;;;;;;;;;4890136;29;19979;-73
2022/08/10 01:07:43;;;;;;;;;;;;;;;;;;4889473;29;19939;-73
2022/08/10 01:10:11;;;;;;;;;;;;;;;;;;4889286;29;19994;-73
2022/08/10 01:12:38;;;;;;;;;;;;;;;;;;5180771;23;1795576;-75
2022/08/10 01:15:14;;;;;;;;;;;;;;;;;;4900949;29;20282;-74
2022/08/10 01:17:41;;;;;;;;;;;;;;;;;;4927462;29;19955;-76
2022/08/10 01:20:17;;;;;;;;;;;;;;;;;;4900827;29;19934;-75
2022/08/10 01:22:53;;;;;;;;;;;;;;;;;;4900585;29;20421;-75
2022/08/10 01:25:21;;;;;;;;;;;;;;;;;;4926117;29;20073;-75
2022/08/10 01:27:48;;;;;;;;;;;;;;;;;;4926398;29;19931;-75
2022/08/10 01:30:19;;;;;;;;;;;;;;;;;;4905172;29;19959;-75
2022/08/10 01:32:46;;;;;;;;;;;;;;;;;;4908966;29;19931;-75
2022/08/10 01:35:14;;;;;;;;;;;;;;;;;;4921035;29;20504;-75
2022/08/10 01:37:41;;;;;;;;;;;;;;;;;;4906002;29;20038;-75
2022/08/10 01:40:08;;;;;;;;;;;;;;;;;;4900144;29;19960;-75
2022/08/10 01:42:36;;;;;;;;;;;;;;;;;;4903450;29;19982;-76
2022/08/10 01:45:03;;;;;;;;;;;;;;;;;;4901996;29;20029;-76
2022/08/10 01:50:17;;;;;;;;;;;;;;;;;;4902430;29;19932;-75
2022/08/10 01:52:44;;;;;;;;;;;;;;;;;;4903598;29;19938;-76
2022/08/10 01:55:11;;;;;;;;;;;;;;;;;;4903691;29;20029;-77
2022/08/10 01:57:39;;;;;;;;;;;;;;;;;;4903028;29;20003;-76
2022/08/10 02:00:06;;;;;;;;;;;;;;;;;;4902472;29;20349;-75
2022/08/10 02:02:33;;;;;;;;;;;;;;;;;;4904789;29;20355;-75
2022/08/10 02:05:01;;;;;;;;;;;;;;;;;;4914170;29;19927;-75
2022/08/10 02:07:28;;;;;;;;;;;;;;;;;;4914369;29;19942;-74
2022/08/10 02:09:55;;;;;;;;;;;;;;;;;;4902178;29;19963;-74
2022/08/10 02:12:23;;;;;;;;;;;;;;;;;;4904661;29;20373;-76
2022/08/10 02:14:50;;;;;;;;;;;;;;;;;;4937105;29;19935;-75
2022/08/10 02:17:18;;;;;;;;;;;;;;;;;;4917076;29;20318;-75
2022/08/10 02:20:05;;;;;;;;;;;;;;;;;;4914124;29;19999;-76
2022/08/10 02:22:32;;;;;;;;;;;;;;;;;;4900446;29;19931;-76
2022/08/10 02:25:04;;;;;;;;;;;;;;;;;;4903117;29;19964;-78
2022/08/10 02:27:31;;;;;;;;;;;;;;;;;;4904239;29;19935;-75
2022/08/10 02:29:59;;;;;;;;;;;;;;;;;;4903157;29;19932;-75
2022/08/10 02:32:26;;;;;;;;;;;;;;;;;;4876253;29;19931;-75
2022/08/10 02:35:04;;;;;;;;;;;;;;;;;;4913240;29;19931;-76
2022/08/10 02:37:31;;;;;;;;;;;;;;;;;;4900845;29;19985;-76
2022/08/10 02:39:59;;;;;;;;;;;;;;;;;;4917183;29;20422;-76
2022/08/10 02:42:26;;;;;;;;;;;;;;;;;;4907705;29;20030;-75
2022/08/10 02:45:13;;;;;;;;;;;;;;;;;;4910563;29;19974;-76
2022/08/10 02:47:56;;;;;;;;;;;;;;;;;;4902817;29;19936;-76
2022/08/10 02:50:24;;;;;;;;;;;;;;;;;;4905508;29;19933;-76
2022/08/10 02:52:51;;;;;;;;;;;;;;;;;;4903267;29;19942;-75
2022/08/10 02:55:18;;;;;;;;;;;;;;;;;;4897139;29;19999;-73
2022/08/10 02:57:48;;;;;;;;;;;;;;;;;;4906876;29;19959;-75
2022/08/10 03:00:35;;;;;;;;;;;;;;;;;;4901929;29;19927;-75
2022/08/10 03:03:02;;;;;;;;;;;;;;;;;;4912136;29;19973;-75
2022/08/10 03:05:29;;;;;;;;;;;;;;;;;;4920320;29;19931;-75
2022/08/10 03:07:57;;;;;;;;;;;;;;;;;;4904406;29;19932;-74
2022/08/10 03:10:24;;;;;;;;;;;;;;;;;;4901332;29;19932;-76
2022/08/10 03:12:51;;;;;;;;;;;;;;;;;;4902899;29;20454;-76
2022/08/10 03:15:20;;;;;;;;;;;;;;;;;;4903052;29;19927;-76
2022/08/10 03:17:47;;;;;;;;;;;;;;;;;;4917363;29;19934;-78
2022/08/10 03:20:24;;;;;;;;;;;;;;;;;;4916048;29;19931;-76
2022/08/10 03:23:04;;;;;;;;;;;;;;;;;;4903223;29;19971;-76
2022/08/10 03:25:32;;;;;;;;;;;;;;;;;;4902568;29;20014;-76
2022/08/10 03:27:59;;;;;;;;;;;;;;;;;;4903651;29;19939;-75
2022/08/10 03:30:26;;;;;;;;;;;;;;;;;;4916556;29;19983;-75
2022/08/10 03:32:59;;;;;;;;;;;;;;;;;;4902151;29;19960;-77
2022/08/10 03:35:27;;;;;;;;;;;;;;;;;;4903924;29;19999;-76
2022/08/10 03:37:54;;;;;;;;;;;;;;;;;;4903885;29;20400;-76
2022/08/10 03:40:24;;;;;;;;;;;;;;;;;;4908587;29;19927;-75
2022/08/10 03:42:51;;;;;;;;;;;;;;;;;;4907189;29;20010;-77
2022/08/10 03:45:18;;;;;;;;;;;;;;;;;;4904382;29;19927;-76
2022/08/10 03:47:46;;;;;;;;;;;;;;;;;;4888959;29;19938;-76
2022/08/10 03:50:13;;;;;;;;;;;;;;;;;;4913125;29;20012;-75
2022/08/10 03:52:54;;;;;;;;;;;;;;;;;;4905480;29;19939;-76
2022/08/10 03:55:21;;;;;;;;;;;;;;;;;;4905527;29;20027;-77
2022/08/10 03:58:08;;;;;;;;;;;;;;;;;;4904567;29;20304;-76
2022/08/10 04:00:35;;;;;;;;;;;;;;;;;;4900363;29;20439;-76
2022/08/10 04:03:03;;;;;;;;;;;;;;;;;;4901808;29;19966;-77
2022/08/10 04:05:30;;;;;;;;;;;;;;;;;;4897583;29;20042;-77
2022/08/10 04:08:05;;;;;;;;;;;;;;;;;;4899399;29;19939;-77
2022/08/10 04:10:34;;;;;;;;;;;;;;;;;;4908116;29;19927;-77
2022/08/10 04:13:01;;;;;;;;;;;;;;;;;;4900019;29;19936;-76
2022/08/10 04:15:28;;;;;;;;;;;;;;;;;;4885134;29;19931;-76
2022/08/10 04:17:56;;;;;;;;;;;;;;;;;;4900016;29;19966;-77
2022/08/10 04:20:32;;;;;;;;;;;;;;;;;;4899080;29;20396;-76
2022/08/10 04:23:02;;;;;;;;;;;;;;;;;;4899650;29;19927;-76
2022/08/10 04:25:29;;;;;;;;;;;;;;;;;;4901966;29;19935;-77
2022/08/10 04:27:56;;;;;;;;;;;;;;;;;;4903764;29;19932;-75
2022/08/10 04:30:24;;;;;;;;;;;;;;;;;;4899709;29;19939;-77
2022/08/10 04:32:51;;;;;;;;;;;;;;;;;;4900747;29;19936;-76
2022/08/10 04:35:18;;;;;;;;;;;;;;;;;;4898890;29;19928;-76
2022/08/10 04:37:45;;;;;;;;;;;;;;;;;;4897119;29;19943;-76
2022/08/10 04:40:13;;;;;;;;;;;;;;;;;;4896802;29;19931;-75
2022/08/10 04:42:51;;;;;;;;;;;;;;;;;;4897908;29;19947;-75
2022/08/10 04:45:18;;;;;;;;;;;;;;;;;;4897954;29;20086;-75
2022/08/10 04:47:46;;;;;;;;;;;;;;;;;;4895828;29;19932;-76
2022/08/10 04:50:27;;;;;;;;;;;;;;;;;;4898970;29;19931;-76
2022/08/10 04:52:55;;;;;;;;;;;;;;;;;;4911667;29;20369;-76
2022/08/10 04:55:22;;;;;;;;;;;;;;;;;;4914853;29;19935;-75
2022/08/10 04:57:49;;;;;;;;;;;;;;;;;;4901635;29;19934;-75
2022/08/10 05:00:16;;;;;;;;;;;;;;;;;;4893294;29;19994;-76
2022/08/10 05:02:45;;;;;;;;;;;;;;;;;;4910214;29;19927;-76
2022/08/10 05:05:12;;;;;;;;;;;;;;;;;;4916696;29;19931;-76
2022/08/10 05:07:40;;;;;;;;;;;;;;;;;;4896148;29;19994;-73
2022/08/10 05:10:20;;;;;;;;;;;;;;;;;;4897608;29;19951;-75
2022/08/10 05:12:47;;;;;;;;;;;;;;;;;;4898932;29;20303;-75
2022/08/10 05:15:17;;;;;;;;;;;;;;;;;;4898691;29;19931;-75
2022/08/10 05:17:44;;;;;;;;;;;;;;;;;;4899273;29;20269;-75
2022/08/10 05:20:31;;;;;;;;;;;;;;;;;;4897976;29;19932;-75
2022/08/10 05:22:58;;;;;;;;;;;;;;;;;;4898221;29;20030;-74
2022/08/10 05:25:26;;;;;;;;;;;;;;;;;;4893307;29;19942;-76
2022/08/10 05:27:53;;;;;;;;;;;;;;;;;;4905032;29;20039;-75
2022/08/10 05:30:23;;;;;;;;;;;;;;;;;;4896240;29;19986;-75
2022/08/10 05:32:50;;;;;;;;;;;;;;;;;;4898457;29;19962;-75
2022/08/10 05:35:24;;;;;;;;;;;;;;;;;;4898312;29;19939;-76
2022/08/10 05:37:51;;;;;;;;;;;;;;;;;;4894194;29;19931;-75
2022/08/10 05:40:39;;;;;;;;;;;;;;;;;;4895271;29;19931;-75
2022/08/10 05:43:07;;;;;;;;;;;;;;;;;;4890323;29;19927;-74
2022/08/10 05:45:34;;;;;;;;;;;;;;;;;;4897535;29;20215;-75
2022/08/10 05:48:21;;;;;;;;;;;;;;;;;;4889556;29;19927;-74
2022/08/10 05:51:09;;;;;;;;;;;;;;;;;;4902558;29;19931;-74
2022/08/10 05:53:37;;;;;;;;;;;;;;;;;;4895677;29;20175;-75
2022/08/10 05:56:24;;;;;;;;;;;;;;;;;;4895985;29;19954;-75
2022/08/10 05:58:52;;;;;;;;;;;;;;;;;;4894228;29;19966;-74
2022/08/10 06:01:19;;;;;;;;;;;;;;;;;;4893824;29;19938;-74
2022/08/10 06:03:46;;;;;;;;;;;;;;;;;;4893018;29;20031;-74
2022/08/10 06:06:14;;;;;;;;;;;;;;;;;;4895416;29;19938;-75
2022/08/10 06:08:41;;;;;;;;;;;;;;;;;;4878554;29;20103;-74
2022/08/10 06:11:08;;;;;;;;;;;;;;;;;;4894282;29;19932;-75
2022/08/10 06:16:42;;;;;;;;;;;;;;;;;;4898140;29;19931;-75
2022/08/10 06:19:10;;;;;;;;;;;;;;;;;;4895553;29;19942;-74
2022/08/10 06:21:37;;;;;;;;;;;;;;;;;;4897190;29;19935;-75
2022/08/10 06:24:04;;;;;;;;;;;;;;;;;;4897145;29;19928;-75
2022/08/10 06:26:31;;;;;;;;;;;;;;;;;;4896302;29;19931;-74
2022/08/10 06:28:59;;;;;;;;;;;;;;;;;;4895386;29;19928;-74
2022/08/10 06:31:29;;;;;;;;;;;;;;;;;;4896880;29;19927;-74
2022/08/10 06:34:15;;;;;;;;;;;;;;;;;;4896416;29;19931;-74
2022/08/10 06:36:42;;;;;;;;;;;;;;;;;;4895881;29;20418;-75
2022/08/10 06:39:09;;;;;;;;;;;;;;;;;;4895890;29;19958;-74
2022/08/10 06:41:56;;;;;;;;;;;;;;;;;;4896654;29;20018;-75
2022/08/10 06:44:43;;;;;;;;;;;;;;;;;;4897259;29;19938;-74
2022/08/10 06:47:10;;;;;;;;;;;;;;;;;;4896492;29;20022;-74
2022/08/10 06:49:37;;;;;;;;;;;;;;;;;;4896909;29;19927;-74
2022/08/10 06:52:05;;;;;;;;;;;;;;;;;;4897718;29;19931;-75
2022/08/10 06:54:32;;;;;;;;;;;;;;;;;;4897474;29;19932;-74
2022/08/10 06:56:59;;;;;;;;;;;;;;;;;;4897473;29;19931;-74
2022/08/10 06:59:46;;;;;;;;;;;;;;;;;;4893598;29;19937;-74
2022/08/10 07:02:15;;;;;;;;;;;;;;;;;;4893556;29;19931;-74
2022/08/10 07:04:42;;;;;;;;;;;;;;;;;;4895330;29;20039;-74
2022/08/10 07:07:09;;;;;;;;;;;;;;;;;;4896343;29;19938;-73
2022/08/10 07:09:36;;;;;;;;;;;;;;;;;;4898403;29;19966;-73
2022/08/10 07:12:04;;;;;;;;;;;;;;;;;;4915798;23;20026;-67
2022/08/10 07:14:34;;;;;;;;;;;;;;;;;;4892571;29;20018;-68
2022/08/10 07:17:01;;;;;;;;;;;;;;;;;;4892460;29;20417;-68
2022/08/10 07:19:28;;;;;;;;;;;;;;;;;;4892550;29;20018;-68
2022/08/10 07:21:56;;;;;;;;;;;;;;;;;;4892923;29;20414;-68
2022/08/10 07:24:24;;;;;;;;;;;;;;;;;;4890974;29;20026;-68
2022/08/10 07:26:51;;;;;;;;;;;;;;;;;;4892494;29;20319;-69
2022/08/10 07:29:18;;;;;;;;;;;;;;;;;;4892437;29;20360;-69
2022/08/10 07:32:06;;;;;;;;;;;;;;;;;;4892227;29;19932;-69
2022/08/10 07:34:33;;;;;;;;;;;;;;;;;;4892796;29;19931;-69
2022/08/10 07:37:01;;;;;;;;;;;;;;;;;;4892576;29;19986;-69
2022/08/10 07:39:28;;;;;;;;;;;;;;;;;;4892192;29;19935;-69
2022/08/10 07:42:15;;;;;;;;;;;;;;;;;;4892115;29;19932;-69
2022/08/10 07:44:42;;;;;;;;;;;;;;;;;;4892698;29;19932;-69
2022/08/10 07:47:10;;;;;;;;;;;;;;;;;;4891741;29;19934;-69
2022/08/10 07:49:37;;;;;;;;;;;;;;;;;;4892310;29;19938;-69
2022/08/10 07:52:05;;;;;;;;;;;;;;;;;;4892181;29;19927;-69
2022/08/10 07:54:32;;;;;;;;;;;;;;;;;;4892023;29;19931;-69
2022/08/10 07:56:59;;;;;;;;;;;;;;;;;;4891486;29;20430;-69
2022/08/10 07:59:26;;;;;;;;;;;;;;;;;;4891986;29;20090;-69
2022/08/10 08:01:54;;;;;;;;;;;;;;;;;;4891698;29;19971;-70
2022/08/10 08:04:21;;;;;;;;;;;;;;;;;;4890851;29;20298;-69
2022/08/10 08:06:48;;;;;;;;;;;;;;;;;;4891338;29;20453;-69
2022/08/10 08:09:16;;;;;;;;;;;;;;;;;;4891336;29;19931;-69
2022/08/10 08:11:43;;;;;;;;;;;;;;;;;;4891162;29;19970;-70
2022/08/10 08:14:11;;;;;;;;;;;;;;;;;;4891714;29;19931;-69
2022/08/10 08:16:38;;;;;;;;;;;;;;;;;;4891260;29;19936;-69
2022/08/10 08:19:05;;;;;;;;;;;;;;;;;;4891640;29;19927;-69
2022/08/10 08:21:52;;;;;;;;;;;;;;;;;;4891199;29;19939;-68
2022/08/10 08:24:40;;;;;;;;;;;;;;;;;;4891469;29;20027;-69
2022/08/10 08:27:08;;;;;;;;;;;;;;;;;;4889796;29;20035;-69
2022/08/10 08:29:35;;;;;;;;;;;;;;;;;;4891434;29;20186;-70
2022/08/10 08:32:03;;;;;;;;;;;;;;;;;;4891198;29;19932;-69
2022/08/10 08:34:30;;;;;;;;;;;;;;;;;;4890379;29;19931;-70
2022/08/10 08:36:57;;;;;;;;;;;;;;;;;;4890005;29;20015;-70
2022/08/10 08:39:26;;;;;;;;;;;;;;;;;;4890937;29;20431;-69
2022/08/10 08:41:53;;;;;;;;;;;;;;;;;;4891004;29;19931;-69
2022/08/10 08:44:20;;;;;;;;;;;;;;;;;;4891430;29;20306;-68
2022/08/10 08:46:47;;;;;;;;;;;;;;;;;;4890727;29;20038;-70
2022/08/10 08:49:23;;;;;;;;;;;;;;;;;;4891192;29;20407;-68
2022/08/10 08:52:10;;;;;;;;;;;;;;;;;;4891625;29;19938;-70
2022/08/10 08:54:45;;;;;;;;;;;;;;;;;;4891542;29;19983;-70
2022/08/10 08:57:13;;;;;;;;;;;;;;;;;;4887839;29;19931;-70
2022/08/10 08:59:40;;;;;;;;;;;;;;;;;;4887930;29;19937;-70
2022/08/10 09:02:07;;;;;;;;;;;;;;;;;;4890996;29;20030;-69
2022/08/10 09:04:34;;;;;;;;;;;;;;;;;;4889727;29;20288;-69
2022/08/10 09:07:06;;;;;;;;;;;;;;;;;;4890980;29;19998;-69
2022/08/10 09:09:33;;;;;;;;;;;;;;;;;;4881559;29;20159;-68
2022/08/10 09:12:00;;;;;;;;;;;;;;;;;;4888672;29;19928;-69
2022/08/10 09:14:27;;;;;;;;;;;;;;;;;;4888934;29;20347;-69
2022/08/10 09:16:56;;;;;;;;;;;;;;;;;;4885771;29;19936;-70
2022/08/10 09:19:23;;;;;;;;;;;;;;;;;;4886649;29;20026;-69
2022/08/10 09:22:02;;;;;;;;;;;;;;;;;;4884937;29;20038;-70
2022/08/10 09:24:43;;;;;;;;;;;;;;;;;;4886881;29;19974;-69
2022/08/10 09:27:11;;;;;;;;;;;;;;;;;;4885577;29;19931;-69
2022/08/10 09:29:38;;;;;;;;;;;;;;;;;;4887644;29;19935;-69
2022/08/10 09:32:05;;;;;;;;;;;;;;;;;;4888714;29;19938;-69
2022/08/10 09:34:53;;;;;;;;;;;;;;;;;;4886368;29;19928;-69
2022/08/10 09:37:40;;;;;;;;;;;;;;;;;;4890250;29;19938;-69
2022/08/10 09:40:27;;;;;;;;;;;;;;;;;;4883119;29;20392;-70
2022/08/10 09:43:14;;;;;;;;;;;;;;;;;;4881978;29;20022;-69
2022/08/10 09:45:52;;;;;;;;;;;;;;;;;;4890024;29;20043;-69
2022/08/10 09:48:19;;;;;;;;;;;;;;;;;;4893323;29;20311;-69
2022/08/10 09:50:46;;;;;;;;;;;;;;;;;;4893848;29;19931;-70
2022/08/10 09:53:34;;;;;;;;;;;;;;;;;;4892684;29;19927;-69
2022/08/10 09:56:01;;;;;;;;;;;;;;;;;;4893576;29;19935;-69
2022/08/10 09:58:45;;;;;;;;;;;;;;;;;;4893322;29;19953;-70
2022/08/10 10:01:12;;;;;;;;;;;;;;;;;;4892362;29;19943;-69
2022/08/10 10:04:00;;;;;;;;;;;;;;;;;;4883657;29;19934;-70
2022/08/10 10:06:27;;;;;;;;;;;;;;;;;;4885575;29;20025;-69
2022/08/10 10:08:55;;;;;;;;;;;;;;;;;;4874321;29;19979;-69
2022/08/10 10:11:24;;;;;;;;;;;;;;;;;;4887295;29;19931;-69
2022/08/10 10:13:51;;;;;;;;;;;;;;;;;;4885723;29;19966;-69
2022/08/10 10:16:31;;;;;;;;;;;;;;;;;;4889662;29;19991;-70
2022/08/10 10:18:58;;;;;;;;;;;;;;;;;;4892945;29;19970;-69
2022/08/10 10:21:26;;;;;;;;;;;;;;;;;;4877589;29;19988;-69
2022/08/10 10:24:13;;;;;;;;;;;;;;;;;;4883383;29;19942;-68
2022/08/10 10:26:47;;;;;;;;;;;;;;;;;;4879081;29;19943;-69
2022/08/10 10:29:17;;;;;;;;;;;;;;;;;;4882750;29;20379;-70
2022/08/10 10:32:04;;;;;;;;;;;;;;;;;;4892142;29;20010;-69
2022/08/10 10:34:31;;;;;;;;;;;;;;;;;;4887288;29;19931;-69
2022/08/10 10:36:59;;;;;;;;;;;;;;;;;;4891816;29;20033;-69
2022/08/10 10:39:26;;;;;;;;;;;;;;;;;;4890356;29;19941;-69
2022/08/10 10:41:53;;;;;;;;;;;;;;;;;;4891591;29;19932;-69
2022/08/10 10:44:30;;;;;;;;;;;;;;;;;;4892987;29;19932;-69
2022/08/10 10:46:57;;;;;;;;;;;;;;;;;;4881617;29;20302;-70
2022/08/10 10:49:24;;;;;;;;;;;;;;;;;;4891464;29;19967;-69
2022/08/10 10:51:53;;;;;;;;;;;;;;;;;;4890063;29;19979;-69
2022/08/10 10:54:20;;;;;;;;;;;;;;;;;;4891978;29;20380;-69
2022/08/10 10:56:48;;;;;;;;;;;;;;;;;;4890430;29;19938;-68
2022/08/10 10:59:15;;;;;;;;;;;;;;;;;;4889231;29;20371;-69
2022/08/10 11:02:02;;;;;;;;;;;;;;;;;;4885543;29;19935;-70
2022/08/10 11:04:30;;;;;;;;;;;;;;;;;;4884758;29;19939;-70
2022/08/10 11:06:57;;;;;;;;;;;;;;;;;;4892062;29;19937;-69
2022/08/10 11:09:24;;;;;;;;;;;;;;;;;;4871511;29;20392;-70
2022/08/10 11:12:14;;;;;;;;;;;;;;;;;;4866246;29;19939;-70
2022/08/10 11:14:41;;;;;;;;;;;;;;;;;;4873410;29;20463;-71
2022/08/10 11:17:08;;;;;;;;;;;;;;;;;;4887169;29;19943;-69
2022/08/10 11:19:35;;;;;;;;;;;;;;;;;;4872135;29;19966;-68
2022/08/10 11:22:23;;;;;;;;;;;;;;;;;;4872030;29;19936;-70
2022/08/10 11:24:50;;;;;;;;;;;;;;;;;;4870743;29;20444;-70
2022/08/10 11:27:17;;;;;;;;;;;;;;;;;;4875378;29;20436;-70
2022/08/10 11:29:48;;;;;;;;;;;;;;;;;;4869567;29;19932;-70
2022/08/10 11:32:16;;;;;;;;;;;;;;;;;;4865111;29;20364;-69
2022/08/10 11:34:46;;;;;;;;;;;;;;;;;;4871605;29;19938;-71
2022/08/10 11:37:34;;;;;;;;;;;;;;;;;;4863232;29;19972;-69
2022/08/10 11:40:21;;;;;;;;;;;;;;;;;;4865333;29;19936;-68
2022/08/10 11:42:50;;;;;;;;;;;;;;;;;;4865496;29;21352;-70
2022/08/10 11:45:17;;;;;;;;;;;;;;;;;;4872661;29;19959;-69
2022/08/10 11:47:44;;;;;;;;;;;;;;;;;;4867942;29;20030;-70
2022/08/10 11:50:12;;;;;;;;;;;;;;;;;;4867152;29;19978;-70
2022/08/10 11:52:39;;;;;;;;;;;;;;;;;;4875257;29;19936;-70
2022/08/10 11:55:09;;;;;;;;;;;;;;;;;;4878176;29;19935;-70
2022/08/10 11:57:37;;;;;;;;;;;;;;;;;;4869478;29;19936;-70
2022/08/10 12:00:21;;;;;;;;;;;;;;;;;;4867570;29;19935;-71
2022/08/10 12:02:48;;;;;;;;;;;;;;;;;;4872017;29;19979;-70
2022/08/10 12:05:16;;;;;;;;;;;;;;;;;;4874846;29;19971;-70
2022/08/10 12:07:43;;;;;;;;;;;;;;;;;;4873740;29;19943;-70
2022/08/10 12:10:31;;;;;;;;;;;;;;;;;;4871171;29;20380;-70
2022/08/10 12:13:00;;;;;;;;;;;;;;;;;;4875431;29;19967;-71
2022/08/10 12:15:27;;;;;;;;;;;;;;;;;;4869409;29;20062;-70
2022/08/10 12:17:55;;;;;;;;;;;;;;;;;;4869545;29;19935;-71
2022/08/10 12:20:22;;;;;;;;;;;;;;;;;;4866117;29;19941;-70
2022/08/10 12:22:49;;;;;;;;;;;;;;;;;;4868784;29;19931;-71
2022/08/10 12:25:17;;;;;;;;;;;;;;;;;;4869341;29;20347;-70
2022/08/10 12:28:06;;;;;;;;;;;;;;;;;;4869932;29;19936;-70
2022/08/10 12:30:33;;;;;;;;;;;;;;;;;;4882245;29;19931;-70
2022/08/10 12:33:01;;;;;;;;;;;;;;;;;;4873813;29;19936;-71
2022/08/10 12:35:28;;;;;;;;;;;;;;;;;;4867907;29;19979;-71
2022/08/10 12:37:56;;;;;;;;;;;;;;;;;;4871238;29;20310;-70
2022/08/10 12:40:23;;;;;;;;;;;;;;;;;;4868869;29;20511;-69
2022/08/10 12:43:01;;;;;;;;;;;;;;;;;;4866726;29;20466;-71
2022/08/10 12:45:48;;;;;;;;;;;;;;;;;;4873576;29;20325;-71
2022/08/10 12:48:16;;;;;;;;;;;;;;;;;;4870489;29;20035;-70
2022/08/10 12:50:43;;;;;;;;;;;;;;;;;;4869644;29;19935;-70
2022/08/10 12:53:10;;;;;;;;;;;;;;;;;;4872477;29;19943;-71
2022/08/10 12:55:38;;;;;;;;;;;;;;;;;;4868890;29;20588;-71
2022/08/10 12:58:06;;;;;;;;;;;;;;;;;;4868221;29;20399;-71
2022/08/10 13:00:53;;;;;;;;;;;;;;;;;;4872142;29;19932;-70
2022/08/10 13:03:41;;;;;;;;;;;;;;;;;;4870741;29;20340;-69
2022/08/10 13:06:28;;;;;;;;;;;;;;;;;;4868745;29;21227;-71
2022/08/10 13:09:17;;;;;;;;;;;;;;;;;;4872155;29;20280;-70
2022/08/10 13:14:31;;;;;;;;;;;;;;;;;;4887852;29;20302;-74
2022/08/10 13:16:59;;;;;;;;;;;;;;;;;;4905146;29;20431;-75
2022/08/10 13:19:26;;;;;;;;;;;;;;;;;;4901708;29;20022;-73
2022/08/10 13:21:53;;;;;;;;;;;;;;;;;;4900712;29;19982;-75
2022/08/10 13:24:20;;;;;;;;;;;;;;;;;;4904742;29;19974;-75
2022/08/10 13:26:48;;;;;;;;;;;;;;;;;;4906345;29;19987;-74
2022/08/10 13:29:35;;;;;;;;;;;;;;;;;;4899476;29;19983;-73
2022/08/10 13:32:03;;;;;;;;;;;;;;;;;;4892746;29;19931;-74
2022/08/10 13:34:37;;;;;;;;;;;;;;;;;;4902827;29;19943;-74
2022/08/10 13:37:10;;;;;;;;;;;;;;;;;;4884106;29;19932;-77
2022/08/10 13:39:38;;;;;;;;;;;;;;;;;;4888392;29;19932;-74
2022/08/10 13:42:25;;;;;;;;;;;;;;;;;;4902927;29;19979;-75
2022/08/10 13:44:58;;;;;;;;;;;;;;;;;;4905268;29;19935;-76
2022/08/10 13:47:25;;;;;;;;;;;;;;;;;;4899312;29;19932;-77
2022/08/10 13:49:52;;;;;;;;;;;;;;;;;;4903352;29;19935;-78
2022/08/10 13:52:20;;;;;;;;;;;;;;;;;;4892235;29;19931;-75
2022/08/10 13:54:47;;;;;;;;;;;;;;;;;;4870358;29;19931;-76
2022/08/10 13:57:14;;;;;;;;;;;;;;;;;;4902412;29;19932;-75
2022/08/10 13:59:42;;;;;;;;;;;;;;;;;;4896774;29;20396;-77
2022/08/10 14:02:38;;;;;;;;;;;;;;;;;;4890055;29;20028;-73
2022/08/10 14:05:05;;;;;;;;;;;;;;;;;;4881974;29;19935;-75
2022/08/10 14:07:32;;;;;;;;;;;;;;;;;;4896795;29;19990;-77
2022/08/10 14:10:03;;;;;;;;;;;;;;;;;;4891968;29;19935;-73
2022/08/10 14:12:31;;;;;;;;;;;;;;;;;;4903172;29;19970;-74
2022/08/10 14:14:59;;;;;;;;;;;;;;;;;;4901405;29;19938;-76
2022/08/10 14:17:27;;;;;;;;;;;;;;;;;;4901087;29;19935;-77
2022/08/10 14:19:54;;;;;;;;;;;;;;;;;;4890461;29;19971;-74
2022/08/10 14:22:25;;;;;;;;;;;;;;;;;;4896310;29;19972;-74
2022/08/10 14:25:00;;;;;;;;;;;;;;;;;;4895201;29;19947;-74
2022/08/10 14:27:28;;;;;;;;;;;;;;;;;;4901305;29;19927;-74
2022/08/10 14:30:15;;;;;;;;;;;;;;;;;;4902029;29;19931;-73
2022/08/10 14:32:43;;;;;;;;;;;;;;;;;;4898551;29;19932;-74
2022/08/10 14:35:10;;;;;;;;;;;;;;;;;;4899215;29;19935;-74
2022/08/10 14:37:57;;;;;;;;;;;;;;;;;;4900274;29;19959;-74
2022/08/10 14:40:25;;;;;;;;;;;;;;;;;;4884670;29;19972;-75
2022/08/10 14:42:52;;;;;;;;;;;;;;;;;;4902539;29;19962;-74
2022/08/10 14:45:20;;;;;;;;;;;;;;;;;;4899791;29;19975;-74
2022/08/10 14:47:47;;;;;;;;;;;;;;;;;;4898039;29;19937;-74
2022/08/10 14:50:20;;;;;;;;;;;;;;;;;;4894850;29;20348;-73
2022/08/10 14:52:58;;;;;;;;;;;;;;;;;;4893482;29;19932;-74
2022/08/10 14:55:26;;;;;;;;;;;;;;;;;;4901037;29;20014;-74
2022/08/10 14:57:53;;;;;;;;;;;;;;;;;;4898181;29;19995;-74
2022/08/10 15:00:41;;;;;;;;;;;;;;;;;;4899804;29;19932;-74
2022/08/10 15:03:09;;;;;;;;;;;;;;;;;;4900822;29;20030;-75
2022/08/10 15:05:57;;;;;;;;;;;;;;;;;;4897480;29;20094;-73
2022/08/10 15:08:27;;;;;;;;;;;;;;;;;;4889500;29;19935;-77
2022/08/10 15:10:55;;;;;;;;;;;;;;;;;;4896730;29;19979;-74
2022/08/10 15:13:22;;;;;;;;;;;;;;;;;;4896138;29;19927;-75
2022/08/10 15:16:01;;;;;;;;;;;;;;;;;;4896757;29;19942;-73
2022/08/10 15:18:39;;;;;;;;;;;;;;;;;;4897484;29;20337;-76
2022/08/10 15:21:06;;;;;;;;;;;;;;;;;;4896775;29;20263;-74
2022/08/10 15:23:43;;;;;;;;;;;;;;;;;;4894820;29;20491;-77
2022/08/10 15:26:30;;;;;;;;;;;;;;;;;;4883640;29;20003;-74
2022/08/10 15:28:57;;;;;;;;;;;;;;;;;;4895331;29;19937;-77
2022/08/10 15:37:19;;;;;;;;;;;;;;;;;;4898027;29;20030;-74
2022/08/10 15:40:06;;;;;;;;;;;;;;;;;;4901184;29;20356;-73
2022/08/10 15:42:48;;;;;;;;;;;;;;;;;;4902643;29;20187;-74
2022/08/10 15:45:16;;;;;;;;;;;;;;;;;;4905385;29;20455;-73
2022/08/10 15:47:43;;;;;;;;;;;;;;;;;;4901464;29;19932;-75
2022/08/10 15:50:12;;;;;;;;;;;;;;;;;;4905063;29;19932;-74
2022/08/10 15:52:39;;;;;;;;;;;;;;;;;;4897263;29;20018;-74
2022/08/10 15:55:27;;;;;;;;;;;;;;;;;;4894654;29;19936;-75
2022/08/10 15:58:11;;;;;;;;;;;;;;;;;;4895145;29;19931;-75
2022/08/10 16:00:38;;;;;;;;;;;;;;;;;;4891983;29;20043;-73
2022/08/10 16:03:05;;;;;;;;;;;;;;;;;;4891444;29;19931;-76
2022/08/10 16:05:33;;;;;;;;;;;;;;;;;;4872058;29;19931;-75
2022/08/10 16:08:21;;;;;;;;;;;;;;;;;;4892017;29;19931;-76
2022/08/10 16:10:48;;;;;;;;;;;;;;;;;;4893020;29;19940;-74
2022/08/10 16:13:20;;;;;;;;;;;;;;;;;;4895367;29;19932;-76
2022/08/10 16:16:07;;;;;;;;;;;;;;;;;;4895008;29;20018;-74
2022/08/10 16:18:35;;;;;;;;;;;;;;;;;;4886504;29;20200;-75
2022/08/10 16:21:02;;;;;;;;;;;;;;;;;;4879069;29;20407;-75
2022/08/10 16:23:29;;;;;;;;;;;;;;;;;;4879647;29;19990;-75
2022/08/10 16:25:56;;;;;;;;;;;;;;;;;;4878989;29;19935;-75
2022/08/10 16:28:25;;;;;;;;;;;;;;;;;;4878911;29;19931;-73
2022/08/10 16:30:52;;;;;;;;;;;;;;;;;;4878356;29;19931;-75
2022/08/10 16:33:20;;;;;;;;;;;;;;;;;;4878635;29;19978;-75
2022/08/10 16:35:47;;;;;;;;;;;;;;;;;;4879169;29;19927;-75
2022/08/10 16:38:16;;;;;;;;;;;;;;;;;;4878608;29;19938;-73
2022/08/10 16:40:43;;;;;;;;;;;;;;;;;;4879372;29;20448;-76
2022/08/10 16:43:10;;;;;;;;;;;;;;;;;;4886239;29;19942;-77
2022/08/10 16:45:38;;;;;;;;;;;;;;;;;;4890548;29;20428;-77
2022/08/10 16:48:05;;;;;;;;;;;;;;;;;;4882886;29;19938;-75
2022/08/10 16:50:33;;;;;;;;;;;;;;;;;;4867836;29;20327;-78
2022/08/10 16:53:01;;;;;;;;;;;;;;;;;;4887440;29;20042;-76
2022/08/10 16:55:31;;;;;;;;;;;;;;;;;;4892947;29;20372;-79
2022/08/10 16:58:15;;;;;;;;;;;;;;;;;;4888077;29;20460;-79
2022/08/10 17:00:42;;;;;;;;;;;;;;;;;;4926169;29;20124;-75
2022/08/10 17:03:10;;;;;;;;;;;;;;;;;;4896197;29;20070;-75
2022/08/10 17:05:49;;;;;;;;;;;;;;;;;;4881874;29;19938;-75
2022/08/10 17:08:36;;;;;;;;;;;;;;;;;;4884886;29;19928;-76
2022/08/10 17:11:04;;;;;;;;;;;;;;;;;;4889114;29;19951;-75
2022/08/10 17:13:31;;;;;;;;;;;;;;;;;;4881079;29;20312;-75
2022/08/10 17:15:58;;;;;;;;;;;;;;;;;;4882136;29;19931;-78
2022/08/10 17:18:29;;;;;;;;;;;;;;;;;;4881797;29;19931;-78
2022/08/10 17:20:56;;;;;;;;;;;;;;;;;;4881542;29;19931;-74
2022/08/10 17:23:24;;;;;;;;;;;;;;;;;;4880006;29;19946;-76
2022/08/10 17:25:51;;;;;;;;;;;;;;;;;;4879915;29;19932;-74